createdAt,value
2018-04-23T00:00:23.730Z,39.20
2018-04-23T00:00:55.472Z,39.20
2018-04-23T00:01:27.238Z,39.30
2018-04-23T00:01:58.998Z,39.30
2018-04-23T00:02:31.500Z,39.20
2018-04-23T00:03:03.245Z,39.20
2018-04-23T00:03:34.999Z,39.20
2018-04-23T00:04:06.757Z,39.40
2018-04-23T00:04:38.482Z,39.30
2018-04-23T00:05:10.238Z,39.30
2018-04-23T00:05:41.990Z,39.40
2018-04-23T00:06:13.728Z,39.30
2018-04-23T00:06:45.482Z,39.20
2018-04-23T00:07:17.231Z,39.40
2018-04-23T00:07:49.023Z,39.30
2018-04-23T00:08:21.505Z,39.40
2018-04-23T00:08:53.303Z,39.30
2018-04-23T00:09:25.071Z,39.40
2018-04-23T00:09:56.817Z,39.20
2018-04-23T00:10:28.613Z,39.30
2018-04-23T00:11:00.340Z,39.40
2018-04-23T00:11:32.080Z,39.40
2018-04-23T00:12:03.839Z,39.30
2018-04-23T00:12:35.590Z,39.30
2018-04-23T00:13:07.333Z,39.40
2018-04-23T00:13:39.083Z,39.40
2018-04-23T00:14:10.810Z,39.40
2018-04-23T00:14:42.558Z,39.30
2018-04-23T00:15:14.336Z,39.40
2018-04-23T00:15:46.839Z,39.20
2018-04-23T00:16:18.599Z,40.00
2018-04-23T00:16:50.342Z,39.40
2018-04-23T00:17:22.083Z,39.50
2018-04-23T00:17:53.839Z,39.40
2018-04-23T00:18:25.567Z,39.40
2018-04-23T00:18:57.311Z,39.40
2018-04-23T00:19:29.041Z,39.30
2018-04-23T00:20:00.788Z,39.50
2018-04-23T00:20:32.709Z,39.40
2018-04-23T00:21:04.450Z,39.40
2018-04-23T00:21:36.975Z,39.50
2018-04-23T00:22:08.710Z,39.50
2018-04-23T00:22:40.739Z,39.40
2018-04-23T00:23:12.498Z,39.30
2018-04-23T00:23:44.232Z,39.30
2018-04-23T00:24:16.013Z,39.40
2018-04-23T00:24:48.515Z,39.40
2018-04-23T00:25:20.253Z,39.40
2018-04-23T00:25:53.220Z,39.40
2018-04-23T00:26:25.734Z,39.30
2018-04-23T00:26:57.483Z,39.30
2018-04-23T00:27:29.252Z,39.30
2018-04-23T00:28:01.783Z,39.50
2018-04-23T00:28:33.549Z,39.40
2018-04-23T00:29:05.341Z,39.40
2018-04-23T00:29:37.083Z,39.40
2018-04-23T00:30:08.950Z,39.40
2018-04-23T00:30:41.426Z,39.40
2018-04-23T00:31:13.247Z,39.40
2018-04-23T00:31:44.977Z,39.40
2018-04-23T00:32:17.482Z,39.50
2018-04-23T00:32:49.226Z,39.30
2018-04-23T00:33:20.997Z,39.30
2018-04-23T00:33:52.743Z,39.40
2018-04-23T00:34:24.483Z,39.30
2018-04-23T00:34:56.992Z,39.40
2018-04-23T00:35:28.771Z,39.40
2018-04-23T00:36:00.529Z,39.40
2018-04-23T00:36:32.273Z,39.40
2018-04-23T00:37:04.029Z,39.30
2018-04-23T00:37:35.774Z,39.40
2018-04-23T00:38:07.509Z,39.40
2018-04-23T00:38:39.294Z,39.30
2018-04-23T00:39:11.050Z,39.30
2018-04-23T00:39:42.903Z,39.20
2018-04-23T00:40:15.389Z,39.40
2018-04-23T00:40:47.122Z,39.40
2018-04-23T00:41:18.883Z,39.30
2018-04-23T00:41:50.637Z,39.40
2018-04-23T00:42:22.401Z,39.30
2018-04-23T00:42:54.134Z,39.40
2018-04-23T00:43:25.884Z,39.40
2018-04-23T00:43:57.619Z,39.30
2018-04-23T00:44:29.372Z,39.90
2018-04-23T00:45:01.109Z,39.40
2018-04-23T00:45:32.895Z,39.30
2018-04-23T00:46:05.437Z,39.40
2018-04-23T00:46:37.967Z,39.40
2018-04-23T00:47:09.720Z,39.30
2018-04-23T00:47:41.485Z,39.30
2018-04-23T00:48:13.997Z,39.40
2018-04-23T00:48:45.752Z,39.40
2018-04-23T00:49:17.499Z,39.20
2018-04-23T00:49:49.324Z,39.20
2018-04-23T00:50:21.803Z,39.30
2018-04-23T00:50:53.576Z,39.30
2018-04-23T00:51:25.320Z,39.30
2018-04-23T00:51:57.056Z,39.20
2018-04-23T00:52:28.786Z,39.30
2018-04-23T00:53:00.544Z,39.30
2018-04-23T00:53:32.290Z,39.30
2018-04-23T00:54:04.018Z,39.30
2018-04-23T00:54:35.776Z,39.20
2018-04-23T00:55:07.517Z,39.20
2018-04-23T00:55:39.278Z,39.30
2018-04-23T00:56:11.008Z,39.30
2018-04-23T00:56:42.755Z,39.30
2018-04-23T00:57:14.502Z,39.20
2018-04-23T00:57:46.239Z,39.30
2018-04-23T00:58:17.986Z,39.40
2018-04-23T00:58:49.726Z,39.50
2018-04-23T00:59:21.469Z,39.40
2018-04-23T00:59:53.228Z,39.40
2018-04-23T01:00:24.961Z,39.30
2018-04-23T01:00:56.706Z,39.30
2018-04-23T01:01:28.442Z,39.40
2018-04-23T01:02:00.219Z,39.30
2018-04-23T01:02:32.728Z,39.20
2018-04-23T01:03:04.466Z,39.10
2018-04-23T01:03:36.315Z,39.20
2018-04-23T01:04:08.789Z,39.40
2018-04-23T01:04:40.563Z,39.50
2018-04-23T01:05:12.293Z,39.40
2018-04-23T01:05:44.047Z,39.30
2018-04-23T01:06:15.796Z,39.40
2018-04-23T01:06:47.534Z,39.50
2018-04-23T01:07:19.295Z,39.50
2018-04-23T01:07:51.046Z,39.40
2018-04-23T01:08:22.786Z,39.40
2018-04-23T01:08:55.303Z,39.40
2018-04-23T01:09:27.038Z,39.30
2018-04-23T01:09:58.798Z,39.40
2018-04-23T01:10:30.543Z,39.40
2018-04-23T01:11:02.284Z,39.40
2018-04-23T01:11:34.038Z,40.00
2018-04-23T01:12:05.815Z,39.40
2018-04-23T01:12:37.587Z,39.40
2018-04-23T01:13:10.095Z,39.30
2018-04-23T01:13:41.845Z,39.30
2018-04-23T01:14:13.585Z,39.30
2018-04-23T01:14:45.332Z,39.30
2018-04-23T01:15:17.078Z,39.40
2018-04-23T01:15:48.818Z,39.50
2018-04-23T01:16:20.561Z,39.50
2018-04-23T01:16:52.383Z,39.40
2018-04-23T01:17:24.861Z,39.50
2018-04-23T01:17:56.671Z,39.50
2018-04-23T01:18:28.402Z,39.50
2018-04-23T01:19:00.929Z,39.60
2018-04-23T01:19:32.660Z,39.50
2018-04-23T01:20:04.408Z,39.50
2018-04-23T01:20:36.153Z,39.40
2018-04-23T01:21:07.911Z,39.40
2018-04-23T01:21:39.649Z,39.50
2018-04-23T01:22:11.382Z,39.40
2018-04-23T01:22:43.143Z,39.50
2018-04-23T01:23:14.874Z,39.50
2018-04-23T01:23:46.610Z,39.60
2018-04-23T01:24:18.376Z,39.60
2018-04-23T01:24:50.299Z,39.50
2018-04-23T01:25:22.078Z,39.60
2018-04-23T01:25:53.815Z,39.50
2018-04-23T01:26:25.550Z,39.50
2018-04-23T01:26:57.297Z,39.50
2018-04-23T01:27:29.205Z,39.40
2018-04-23T01:28:01.159Z,39.60
2018-04-23T01:28:32.907Z,39.50
2018-04-23T01:29:04.683Z,39.50
2018-04-23T01:29:36.410Z,39.50
2018-04-23T01:30:08.151Z,39.40
2018-04-23T01:30:39.906Z,39.60
2018-04-23T01:31:11.634Z,39.50
2018-04-23T01:31:43.361Z,39.50
2018-04-23T01:32:15.115Z,39.50
2018-04-23T01:32:46.871Z,39.50
2018-04-23T01:33:18.596Z,39.50
2018-04-23T01:33:50.540Z,39.40
2018-04-23T01:34:22.277Z,39.50
2018-04-23T01:34:54.020Z,39.40
2018-04-23T01:35:26.528Z,39.50
2018-04-23T01:35:58.266Z,39.50
2018-04-23T01:36:29.998Z,39.50
2018-04-23T01:37:01.784Z,39.50
2018-04-23T01:37:33.548Z,39.50
2018-04-23T01:38:06.099Z,39.40
2018-04-23T01:38:37.850Z,39.40
2018-04-23T01:39:09.602Z,39.90
2018-04-23T01:39:42.105Z,40.00
2018-04-23T01:40:13.949Z,39.40
2018-04-23T01:40:46.443Z,39.50
2018-04-23T01:41:18.177Z,39.50
2018-04-23T01:41:49.938Z,39.50
2018-04-23T01:42:21.718Z,39.60
2018-04-23T01:42:54.229Z,39.50
2018-04-23T01:43:25.963Z,39.50
2018-04-23T01:43:57.699Z,39.50
2018-04-23T01:44:29.476Z,39.60
2018-04-23T01:45:01.221Z,39.60
2018-04-23T01:45:32.957Z,39.50
2018-04-23T01:46:04.703Z,39.50
2018-04-23T01:46:36.466Z,39.60
2018-04-23T01:47:08.199Z,39.60
2018-04-23T01:47:39.944Z,40.20
2018-04-23T01:48:11.693Z,39.50
2018-04-23T01:48:43.482Z,39.60
2018-04-23T01:49:15.214Z,39.60
2018-04-23T01:49:47.721Z,39.50
2018-04-23T01:50:19.470Z,39.50
2018-04-23T01:50:51.205Z,39.60
2018-04-23T01:51:22.953Z,39.60
2018-04-23T01:51:54.701Z,39.60
2018-04-23T01:52:26.471Z,39.50
2018-04-23T01:52:58.201Z,39.50
2018-04-23T01:53:29.939Z,39.60
2018-04-23T01:54:01.721Z,39.50
2018-04-23T01:54:33.436Z,39.50
2018-04-23T01:55:05.211Z,39.50
2018-04-23T01:55:37.726Z,39.70
2018-04-23T01:56:09.479Z,39.70
2018-04-23T01:56:41.217Z,39.70
2018-04-23T01:57:12.958Z,39.80
2018-04-23T01:57:44.696Z,39.70
2018-04-23T01:58:16.439Z,39.70
2018-04-23T01:58:48.182Z,39.70
2018-04-23T01:59:19.969Z,39.70
2018-04-23T01:59:51.716Z,39.80
2018-04-23T02:00:23.446Z,39.70
2018-04-23T02:00:55.179Z,39.80
2018-04-23T02:01:26.920Z,39.70
2018-04-23T02:01:58.682Z,39.60
2018-04-23T02:02:30.437Z,39.70
2018-04-23T02:03:02.182Z,39.70
2018-04-23T02:03:33.921Z,39.70
2018-04-23T02:04:05.682Z,39.70
2018-04-23T02:04:38.199Z,39.80
2018-04-23T02:05:10.137Z,39.70
2018-04-23T02:05:41.898Z,39.80
2018-04-23T02:06:13.630Z,39.70
2018-04-23T02:06:45.418Z,39.70
2018-04-23T02:07:17.531Z,39.70
2018-04-23T02:07:49.267Z,39.70
2018-04-23T02:08:21.005Z,39.70
2018-04-23T02:08:52.735Z,39.80
2018-04-23T02:09:24.477Z,39.70
2018-04-23T02:09:56.218Z,39.80
2018-04-23T02:10:28.011Z,39.80
2018-04-23T02:10:59.761Z,39.80
2018-04-23T02:11:31.492Z,39.80
2018-04-23T02:12:03.236Z,39.70
2018-04-23T02:12:35.015Z,39.70
2018-04-23T02:13:06.752Z,39.90
2018-04-23T02:13:38.501Z,39.80
2018-04-23T02:14:10.252Z,39.80
2018-04-23T02:14:41.978Z,39.80
2018-04-23T02:15:13.726Z,39.90
2018-04-23T02:15:45.660Z,39.90
2018-04-23T02:16:17.395Z,39.80
2018-04-23T02:16:49.156Z,39.80
2018-04-23T02:17:20.896Z,39.70
2018-04-23T02:17:52.636Z,39.70
2018-04-23T02:18:24.386Z,39.70
2018-04-23T02:18:56.102Z,39.80
2018-04-23T02:19:27.870Z,39.80
2018-04-23T02:19:59.615Z,39.70
2018-04-23T02:20:31.365Z,39.90
2018-04-23T02:21:03.179Z,39.90
2018-04-23T02:21:35.650Z,39.90
2018-04-23T02:22:07.379Z,39.80
2018-04-23T02:22:39.123Z,39.90
2018-04-23T02:23:10.854Z,39.80
2018-04-23T02:23:42.593Z,39.80
2018-04-23T02:24:15.108Z,39.90
2018-04-23T02:24:47.088Z,39.90
2018-04-23T02:25:19.598Z,39.90
2018-04-23T02:25:51.364Z,39.80
2018-04-23T02:26:23.090Z,39.90
2018-04-23T02:26:54.830Z,39.90
2018-04-23T02:27:26.572Z,39.90
2018-04-23T02:27:58.325Z,39.80
2018-04-23T02:28:30.164Z,39.90
2018-04-23T02:29:02.646Z,39.90
2018-04-23T02:29:34.389Z,39.90
2018-04-23T02:30:06.157Z,39.80
2018-04-23T02:30:37.900Z,39.80
2018-04-23T02:31:09.630Z,39.70
2018-04-23T02:31:41.372Z,39.70
2018-04-23T02:32:13.122Z,39.90
2018-04-23T02:32:44.868Z,39.80
2018-04-23T02:33:16.801Z,39.80
2018-04-23T02:33:48.535Z,39.90
2018-04-23T02:34:20.295Z,39.80
2018-04-23T02:34:52.064Z,40.60
2018-04-23T02:35:23.818Z,39.90
2018-04-23T02:35:55.839Z,39.80
2018-04-23T02:36:27.578Z,39.80
2018-04-23T02:36:59.332Z,39.80
2018-04-23T02:37:31.054Z,39.80
2018-04-23T02:38:02.804Z,39.90
2018-04-23T02:38:34.537Z,39.80
2018-04-23T02:39:06.295Z,39.90
2018-04-23T02:39:38.026Z,39.90
2018-04-23T02:40:09.751Z,39.80
2018-04-23T02:40:41.493Z,39.70
2018-04-23T02:41:13.258Z,39.80
2018-04-23T02:41:45.003Z,39.90
2018-04-23T02:42:16.727Z,39.80
2018-04-23T02:42:48.471Z,39.90
2018-04-23T02:43:20.417Z,39.80
2018-04-23T02:43:52.972Z,39.90
2018-04-23T02:44:24.863Z,39.80
2018-04-23T02:44:56.616Z,39.80
2018-04-23T02:45:28.355Z,39.90
2018-04-23T02:46:00.098Z,39.80
2018-04-23T02:46:31.864Z,39.90
2018-04-23T02:47:03.819Z,39.80
2018-04-23T02:47:35.580Z,39.80
2018-04-23T02:48:07.322Z,39.90
2018-04-23T02:48:39.057Z,39.90
2018-04-23T02:49:10.791Z,40.00
2018-04-23T02:49:42.551Z,39.90
2018-04-23T02:50:14.267Z,39.90
2018-04-23T02:50:46.034Z,39.80
2018-04-23T02:51:17.767Z,39.80
2018-04-23T02:51:49.503Z,39.80
2018-04-23T02:52:21.265Z,39.80
2018-04-23T02:52:53.183Z,39.90
2018-04-23T02:53:24.973Z,39.80
2018-04-23T02:53:56.698Z,39.80
2018-04-23T02:54:28.435Z,40.00
2018-04-23T02:55:00.190Z,40.00
2018-04-23T02:55:31.946Z,39.90
2018-04-23T02:56:03.695Z,40.00
2018-04-23T02:56:36.206Z,40.10
2018-04-23T02:57:07.946Z,40.00
2018-04-23T02:57:39.878Z,40.00
2018-04-23T02:58:11.626Z,40.00
2018-04-23T02:58:43.423Z,39.90
2018-04-23T02:59:15.161Z,39.90
2018-04-23T02:59:46.923Z,39.90
2018-04-23T03:00:18.670Z,40.10
2018-04-23T03:00:50.402Z,40.10
2018-04-23T03:01:22.145Z,40.70
2018-04-23T03:01:53.885Z,40.10
2018-04-23T03:02:25.638Z,40.00
2018-04-23T03:02:57.386Z,40.00
2018-04-23T03:03:29.127Z,40.10
2018-04-23T03:04:00.870Z,40.20
2018-04-23T03:04:32.818Z,40.10
2018-04-23T03:05:04.576Z,40.10
2018-04-23T03:05:37.087Z,40.20
2018-04-23T03:06:08.822Z,40.20
2018-04-23T03:06:40.569Z,40.20
2018-04-23T03:07:12.329Z,40.30
2018-04-23T03:07:44.052Z,40.40
2018-04-23T03:08:15.779Z,40.30
2018-04-23T03:08:47.528Z,40.20
2018-04-23T03:09:20.023Z,40.40
2018-04-23T03:09:51.789Z,40.40
2018-04-23T03:10:23.538Z,40.40
2018-04-23T03:10:55.287Z,40.40
2018-04-23T03:11:28.544Z,40.40
2018-04-23T03:12:00.270Z,40.30
2018-04-23T03:12:32.021Z,41.00
2018-04-23T03:13:03.756Z,40.40
2018-04-23T03:13:35.496Z,40.20
2018-04-23T03:14:07.241Z,40.30
2018-04-23T03:14:38.978Z,40.30
2018-04-23T03:15:10.733Z,40.40
2018-04-23T03:15:42.456Z,40.30
2018-04-23T03:16:14.990Z,40.40
2018-04-23T03:16:47.489Z,39.90
2018-04-23T03:17:19.248Z,40.40
2018-04-23T03:17:50.971Z,40.30
2018-04-23T03:18:22.741Z,40.30
2018-04-23T03:18:54.466Z,40.30
2018-04-23T03:19:26.209Z,40.20
2018-04-23T03:19:57.968Z,40.10
2018-04-23T03:20:29.716Z,40.20
2018-04-23T03:21:01.505Z,40.20
2018-04-23T03:21:34.060Z,40.30
2018-04-23T03:22:05.795Z,40.30
2018-04-23T03:22:37.548Z,40.30
2018-04-23T03:23:09.294Z,40.40
2018-04-23T03:23:41.044Z,40.50
2018-04-23T03:24:12.783Z,40.40
2018-04-23T03:24:44.518Z,40.50
2018-04-23T03:25:16.273Z,40.60
2018-04-23T03:25:48.046Z,40.60
2018-04-23T03:26:20.547Z,40.50
2018-04-23T03:26:52.344Z,40.50
2018-04-23T03:27:24.850Z,40.50
2018-04-23T03:27:56.597Z,41.00
2018-04-23T03:28:28.330Z,40.30
2018-04-23T03:29:00.063Z,40.40
2018-04-23T03:29:31.825Z,40.50
2018-04-23T03:30:03.571Z,40.50
2018-04-23T03:30:35.315Z,40.50
2018-04-23T03:31:07.063Z,40.50
2018-04-23T03:31:38.810Z,40.40
2018-04-23T03:32:10.567Z,40.40
2018-04-23T03:32:42.336Z,40.50
2018-04-23T03:33:14.240Z,40.40
2018-04-23T03:33:46.720Z,40.50
2018-04-23T03:34:18.489Z,40.50
2018-04-23T03:34:50.229Z,40.50
2018-04-23T03:35:21.972Z,40.50
2018-04-23T03:35:53.735Z,40.50
2018-04-23T03:36:25.480Z,40.50
2018-04-23T03:36:57.199Z,40.40
2018-04-23T03:37:28.943Z,40.50
2018-04-23T03:38:00.678Z,40.40
2018-04-23T03:38:32.423Z,40.60
2018-04-23T03:39:04.194Z,40.50
2018-04-23T03:39:35.952Z,40.40
2018-04-23T03:40:08.471Z,40.50
2018-04-23T03:40:40.214Z,40.50
2018-04-23T03:41:12.020Z,40.50
2018-04-23T03:41:44.531Z,40.50
2018-04-23T03:42:16.314Z,40.50
2018-04-23T03:42:48.831Z,40.60
2018-04-23T03:43:20.577Z,40.50
2018-04-23T03:43:52.332Z,40.50
2018-04-23T03:44:24.096Z,40.60
2018-04-23T03:44:56.006Z,40.50
2018-04-23T03:45:27.751Z,40.50
2018-04-23T03:45:59.493Z,40.60
2018-04-23T03:46:31.222Z,40.50
2018-04-23T03:47:03.015Z,40.50
2018-04-23T03:47:34.741Z,40.50
2018-04-23T03:48:06.488Z,40.60
2018-04-23T03:48:38.254Z,40.60
2018-04-23T03:49:09.988Z,40.60
2018-04-23T03:49:41.732Z,40.50
2018-04-23T03:50:13.471Z,40.60
2018-04-23T03:50:45.228Z,40.50
2018-04-23T03:51:16.990Z,40.50
2018-04-23T03:51:49.497Z,40.60
2018-04-23T03:52:21.287Z,40.50
2018-04-23T03:52:53.065Z,40.40
2018-04-23T03:53:24.802Z,40.40
2018-04-23T03:53:56.582Z,40.50
2018-04-23T03:54:28.313Z,40.50
2018-04-23T03:55:00.050Z,40.60
2018-04-23T03:55:31.833Z,40.60
2018-04-23T03:56:03.560Z,40.60
2018-04-23T03:56:35.294Z,40.70
2018-04-23T03:57:07.048Z,40.60
2018-04-23T03:57:38.875Z,40.60
2018-04-23T03:58:10.598Z,40.60
2018-04-23T03:58:42.361Z,40.60
2018-04-23T03:59:14.112Z,40.60
2018-04-23T03:59:45.860Z,40.60
2018-04-23T04:00:17.609Z,40.60
2018-04-23T04:00:49.344Z,40.50
2018-04-23T04:01:21.119Z,40.50
2018-04-23T04:01:52.854Z,40.50
2018-04-23T04:02:24.590Z,40.60
2018-04-23T04:02:56.351Z,40.60
2018-04-23T04:03:28.092Z,40.60
2018-04-23T04:03:59.827Z,40.50
2018-04-23T04:04:31.789Z,40.60
2018-04-23T04:05:03.535Z,40.60
2018-04-23T04:05:35.287Z,40.70
2018-04-23T04:06:07.017Z,40.50
2018-04-23T04:06:38.778Z,40.50
2018-04-23T04:07:10.511Z,40.60
2018-04-23T04:07:42.253Z,40.70
2018-04-23T04:08:14.014Z,40.70
2018-04-23T04:08:45.745Z,40.70
2018-04-23T04:09:17.556Z,40.50
2018-04-23T04:09:49.455Z,40.60
2018-04-23T04:10:21.221Z,40.50
2018-04-23T04:10:53.770Z,40.70
2018-04-23T04:11:25.490Z,40.70
2018-04-23T04:11:57.230Z,40.60
2018-04-23T04:12:28.971Z,40.60
2018-04-23T04:13:00.759Z,40.60
2018-04-23T04:13:32.492Z,40.70
2018-04-23T04:14:04.257Z,41.10
2018-04-23T04:14:35.998Z,41.10
2018-04-23T04:15:08.539Z,40.60
2018-04-23T04:15:40.277Z,40.60
2018-04-23T04:16:12.026Z,40.60
2018-04-23T04:16:43.781Z,40.50
2018-04-23T04:17:15.517Z,41.20
2018-04-23T04:17:48.058Z,40.80
2018-04-23T04:18:19.845Z,40.60
2018-04-23T04:18:52.350Z,40.60
2018-04-23T04:19:24.085Z,40.60
2018-04-23T04:19:55.814Z,40.60
2018-04-23T04:20:27.550Z,40.50
2018-04-23T04:21:00.061Z,40.50
2018-04-23T04:21:31.814Z,40.50
2018-04-23T04:22:03.566Z,40.50
2018-04-23T04:22:35.301Z,40.50
2018-04-23T04:23:07.091Z,40.40
2018-04-23T04:23:39.601Z,40.50
2018-04-23T04:24:11.350Z,40.50
2018-04-23T04:24:43.188Z,40.40
2018-04-23T04:25:15.068Z,40.40
2018-04-23T04:25:46.804Z,40.40
2018-04-23T04:26:18.561Z,40.80
2018-04-23T04:26:50.326Z,41.30
2018-04-23T04:27:22.068Z,40.90
2018-04-23T04:27:54.575Z,40.90
2018-04-23T04:28:26.326Z,40.90
2018-04-23T04:28:58.163Z,42.00
2018-04-23T04:29:29.867Z,42.10
2018-04-23T04:30:02.376Z,41.40
2018-04-23T04:30:34.124Z,41.40
2018-04-23T04:31:05.885Z,41.80
2018-04-23T04:31:37.615Z,40.90
2018-04-23T04:32:09.356Z,41.00
2018-04-23T04:32:41.102Z,40.90
2018-04-23T04:33:12.839Z,40.80
2018-04-23T04:33:44.581Z,40.70
2018-04-23T04:34:16.372Z,40.80
2018-04-23T04:34:48.920Z,42.00
2018-04-23T04:35:20.697Z,41.30
2018-04-23T04:35:52.472Z,41.40
2018-04-23T04:36:24.209Z,41.90
2018-04-23T04:36:55.954Z,41.40
2018-04-23T04:37:27.703Z,41.50
2018-04-23T04:37:59.450Z,41.90
2018-04-23T04:38:31.190Z,42.20
2018-04-23T04:39:02.983Z,42.00
2018-04-23T04:39:34.733Z,42.30
2018-04-23T04:40:07.343Z,42.30
2018-04-23T04:40:39.819Z,42.20
2018-04-23T04:41:11.568Z,42.10
2018-04-23T04:41:43.307Z,42.00
2018-04-23T04:42:15.071Z,41.60
2018-04-23T04:42:46.828Z,41.90
2018-04-23T04:43:18.568Z,42.00
2018-04-23T04:43:50.319Z,42.10
2018-04-23T04:44:22.849Z,42.20
2018-04-23T04:44:54.576Z,42.20
2018-04-23T04:45:26.429Z,42.30
2018-04-23T04:45:58.901Z,42.50
2018-04-23T04:46:30.632Z,42.50
2018-04-23T04:47:02.386Z,42.70
2018-04-23T04:47:34.131Z,42.50
2018-04-23T04:48:05.886Z,42.50
2018-04-23T04:48:37.656Z,42.50
2018-04-23T04:49:09.370Z,43.00
2018-04-23T04:49:41.120Z,43.10
2018-04-23T04:51:29.819Z,43.20
2018-04-23T04:52:01.577Z,43.10
2018-04-23T04:52:33.322Z,43.10
2018-04-23T04:53:05.699Z,43.00
2018-04-23T04:53:37.756Z,43.00
2018-04-23T04:54:09.523Z,43.10
2018-04-23T04:54:41.244Z,43.20
2018-04-23T04:55:13.025Z,43.20
2018-04-23T04:55:44.757Z,43.10
2018-04-23T04:56:16.697Z,43.40
2018-04-23T04:56:48.439Z,43.20
2018-04-23T04:57:20.204Z,43.80
2018-04-23T04:57:51.941Z,43.70
2018-04-23T04:58:23.682Z,43.80
2018-04-23T04:58:55.469Z,43.80
2018-04-23T04:59:28.002Z,43.80
2018-04-23T04:59:59.749Z,43.70
2018-04-23T05:00:31.482Z,43.60
2018-04-23T05:01:03.224Z,43.70
2018-04-23T05:01:34.963Z,43.70
2018-04-23T05:02:06.716Z,43.70
2018-04-23T05:02:38.470Z,43.70
2018-04-23T05:03:10.223Z,43.60
2018-04-23T05:03:41.958Z,43.50
2018-04-23T05:04:13.703Z,43.40
2018-04-23T05:04:45.469Z,43.40
2018-04-23T05:05:17.990Z,43.60
2018-04-23T05:05:49.730Z,43.50
2018-04-23T05:06:21.511Z,43.50
2018-04-23T05:06:53.256Z,43.40
2018-04-23T05:07:25.775Z,43.50
2018-04-23T05:07:57.526Z,43.40
2018-04-23T05:08:29.282Z,43.40
2018-04-23T05:09:01.033Z,43.10
2018-04-23T05:09:32.798Z,43.10
2018-04-23T05:10:04.531Z,43.10
2018-04-23T05:10:36.268Z,43.10
2018-04-23T05:11:08.008Z,43.00
2018-04-23T05:11:39.811Z,43.10
2018-04-23T05:12:12.302Z,43.80
2018-04-23T05:12:44.046Z,43.10
2018-04-23T05:13:15.782Z,43.10
2018-04-23T05:13:47.548Z,43.10
2018-04-23T05:14:19.282Z,43.30
2018-04-23T05:14:51.030Z,43.30
2018-04-23T05:15:22.771Z,43.30
2018-04-23T05:15:54.527Z,43.40
2018-04-23T05:16:26.282Z,43.30
2018-04-23T05:16:58.016Z,43.30
2018-04-23T05:17:29.775Z,43.30
2018-04-23T05:18:01.515Z,43.10
2018-04-23T05:18:33.271Z,43.20
2018-04-23T05:19:05.802Z,43.60
2018-04-23T05:19:37.561Z,43.40
2018-04-23T05:20:09.310Z,43.20
2018-04-23T05:20:41.034Z,43.10
2018-04-23T05:21:12.827Z,43.20
2018-04-23T05:21:45.350Z,43.00
2018-04-23T05:22:17.103Z,43.00
2018-04-23T05:22:48.853Z,42.90
2018-04-23T05:23:20.600Z,42.90
2018-04-23T05:23:52.417Z,43.00
2018-04-23T05:24:24.299Z,43.00
2018-04-23T05:24:56.026Z,43.40
2018-04-23T05:25:27.769Z,43.30
2018-04-23T05:25:59.509Z,43.00
2018-04-23T05:26:31.262Z,43.30
2018-04-23T05:27:03.005Z,43.30
2018-04-23T05:27:34.758Z,43.00
2018-04-23T05:28:06.523Z,43.20
2018-04-23T05:28:39.126Z,43.20
2018-04-23T05:29:11.624Z,43.50
2018-04-23T05:29:43.357Z,43.40
2018-04-23T05:30:15.090Z,43.20
2018-04-23T05:30:46.839Z,43.40
2018-04-23T05:31:18.581Z,43.20
2018-04-23T05:31:50.323Z,43.10
2018-04-23T05:32:22.057Z,42.90
2018-04-23T05:32:53.802Z,43.10
2018-04-23T05:33:25.571Z,43.20
2018-04-23T05:33:57.293Z,43.00
2018-04-23T05:34:29.070Z,43.00
2018-04-23T05:35:00.819Z,43.10
2018-04-23T05:35:33.314Z,43.40
2018-04-23T05:36:05.074Z,43.40
2018-04-23T05:36:36.854Z,43.20
2018-04-23T05:37:08.674Z,43.10
2018-04-23T05:37:41.206Z,42.80
2018-04-23T05:38:13.101Z,42.80
2018-04-23T05:38:44.854Z,42.90
2018-04-23T05:39:16.594Z,43.20
2018-04-23T05:39:48.360Z,43.40
2018-04-23T05:40:20.131Z,42.80
2018-04-23T05:40:52.638Z,43.00
2018-04-23T05:41:24.395Z,43.10
2018-04-23T05:41:56.126Z,43.10
2018-04-23T05:42:28.070Z,43.00
2018-04-23T05:42:59.818Z,43.10
2018-04-23T05:43:31.549Z,42.90
2018-04-23T05:44:03.464Z,43.30
2018-04-23T05:44:36.099Z,42.90
2018-04-23T05:45:07.869Z,42.90
2018-04-23T05:45:39.608Z,42.80
2018-04-23T05:46:11.346Z,42.60
2018-04-23T05:46:43.087Z,43.30
2018-04-23T05:47:14.830Z,42.70
2018-04-23T05:47:46.571Z,42.70
2018-04-23T05:48:18.310Z,42.60
2018-04-23T05:48:50.041Z,42.70
2018-04-23T05:49:21.777Z,42.90
2018-04-23T05:49:53.506Z,42.90
2018-04-23T05:50:25.258Z,42.70
2018-04-23T05:50:56.993Z,42.60
2018-04-23T05:51:28.733Z,42.70
2018-04-23T05:52:00.473Z,42.80
2018-04-23T05:52:32.224Z,43.10
2018-04-23T05:53:03.978Z,43.00
2018-04-23T05:53:35.717Z,43.50
2018-04-23T05:54:07.490Z,42.80
2018-04-23T05:54:39.258Z,42.60
2018-04-23T05:55:11.749Z,43.10
2018-04-23T05:55:43.514Z,43.10
2018-04-23T05:56:15.259Z,43.30
2018-04-23T05:56:46.993Z,43.10
2018-04-23T05:57:18.751Z,43.20
2018-04-23T05:57:50.474Z,43.10
2018-04-23T05:58:22.239Z,42.90
2018-04-23T05:58:53.970Z,43.00
2018-04-23T05:59:25.724Z,43.00
2018-04-23T05:59:57.672Z,42.90
2018-04-23T06:00:29.382Z,42.90
2018-04-23T06:01:01.898Z,43.30
2018-04-23T06:01:33.630Z,43.20
2018-04-23T06:02:05.381Z,43.10
2018-04-23T06:02:37.119Z,43.20
2018-04-23T06:03:08.897Z,43.30
2018-04-23T06:03:40.800Z,43.40
2018-04-23T06:04:12.537Z,43.30
2018-04-23T06:04:44.278Z,43.30
2018-04-23T06:05:16.084Z,43.00
2018-04-23T06:05:47.985Z,42.70
2018-04-23T06:06:19.788Z,43.00
2018-04-23T06:06:52.287Z,43.20
2018-04-23T06:07:24.026Z,43.20
2018-04-23T06:07:55.854Z,43.10
2018-04-23T06:08:28.381Z,43.20
2018-04-23T06:09:00.119Z,43.20
2018-04-23T06:09:31.868Z,43.10
2018-04-23T06:10:03.610Z,43.00
2018-04-23T06:10:35.336Z,43.00
2018-04-23T06:11:07.067Z,42.90
2018-04-23T06:11:38.814Z,42.90
2018-04-23T06:12:10.554Z,43.00
2018-04-23T06:12:42.288Z,43.40
2018-04-23T06:13:14.053Z,43.00
2018-04-23T06:13:45.792Z,43.10
2018-04-23T06:14:17.576Z,43.30
2018-04-23T06:14:49.476Z,43.10
2018-04-23T06:15:21.226Z,43.20
2018-04-23T06:15:52.972Z,43.60
2018-04-23T06:16:24.702Z,43.40
2018-04-23T06:16:56.467Z,43.30
2018-04-23T06:17:28.222Z,42.90
2018-04-23T06:17:59.954Z,42.70
2018-04-23T06:18:31.705Z,42.90
2018-04-23T06:19:03.442Z,42.90
2018-04-23T06:19:35.174Z,42.90
2018-04-23T06:20:07.127Z,42.90
2018-04-23T06:20:38.862Z,43.00
2018-04-23T06:21:10.619Z,42.90
2018-04-23T06:21:42.354Z,42.70
2018-04-23T06:22:14.094Z,43.10
2018-04-23T06:22:45.836Z,42.90
2018-04-23T06:23:17.782Z,42.80
2018-04-23T06:23:50.282Z,42.90
2018-04-23T06:24:22.046Z,42.90
2018-04-23T06:24:53.937Z,42.80
2018-04-23T06:25:25.710Z,43.00
2018-04-23T06:25:57.443Z,42.80
2018-04-23T06:26:29.182Z,42.90
2018-04-23T06:27:00.934Z,43.60
2018-04-23T06:27:32.677Z,43.00
2018-04-23T06:28:04.677Z,42.60
2018-04-23T06:28:36.583Z,42.70
2018-04-23T06:29:08.371Z,43.00
2018-04-23T06:29:40.095Z,43.00
2018-04-23T06:30:11.827Z,42.90
2018-04-23T06:30:43.621Z,42.80
2018-04-23T06:31:16.145Z,42.70
2018-04-23T06:31:47.897Z,42.70
2018-04-23T06:32:19.642Z,42.50
2018-04-23T06:32:51.399Z,43.10
2018-04-23T06:33:23.402Z,42.60
2018-04-23T06:33:55.866Z,42.80
2018-04-23T06:34:27.614Z,42.70
2018-04-23T06:34:59.350Z,42.60
2018-04-23T06:35:31.075Z,42.30
2018-04-23T06:36:02.835Z,42.40
2018-04-23T06:36:34.578Z,42.40
2018-04-23T06:37:07.065Z,42.50
2018-04-23T06:37:38.790Z,42.50
2018-04-23T06:38:10.523Z,42.30
2018-04-23T06:38:42.261Z,42.20
2018-04-23T06:39:14.004Z,42.70
2018-04-23T06:39:45.758Z,42.80
2018-04-23T06:40:17.502Z,42.80
2018-04-23T06:40:49.460Z,42.70
2018-04-23T06:41:21.188Z,42.60
2018-04-23T06:41:52.974Z,42.50
2018-04-23T06:42:24.723Z,42.90
2018-04-23T06:42:56.467Z,42.70
2018-04-23T06:43:28.213Z,42.60
2018-04-23T06:44:00.173Z,42.20
2018-04-23T06:44:31.893Z,42.30
2018-04-23T06:45:03.649Z,42.70
2018-04-23T06:45:35.374Z,42.60
2018-04-23T06:46:07.151Z,42.30
2018-04-23T06:46:39.082Z,42.10
2018-04-23T06:47:10.813Z,42.20
2018-04-23T06:47:42.554Z,42.50
2018-04-23T06:48:14.311Z,43.00
2018-04-23T06:48:46.038Z,42.40
2018-04-23T06:49:17.815Z,42.30
2018-04-23T06:49:49.549Z,42.50
2018-04-23T06:50:21.352Z,42.60
2018-04-23T06:50:53.884Z,42.60
2018-04-23T06:51:25.621Z,42.60